createdAt,value
2022-08-11T00:02:55.959Z,101699.75
2022-08-11T00:05:58.619Z,101701.53
2022-08-11T00:09:04.457Z,101693.47
2022-08-11T00:12:14.686Z,101708.69
2022-08-11T00:15:17.265Z,101705.09
2022-08-11T00:18:20.375Z,101703.34
2022-08-11T00:21:59.691Z,101701.53
2022-08-11T00:24:52.580Z,101705.13
2022-08-11T00:27:57.111Z,101707.78
2022-08-11T00:31:04.444Z,101700.63
2022-08-11T00:34:11.358Z,101701.56
2022-08-11T00:37:20.625Z,101698.88
2022-08-11T00:40:29.767Z,101703.34
2022-08-11T00:44:09.692Z,101701.56
2022-08-11T00:47:17.660Z,101703.31
2022-08-11T00:50:38.649Z,101702.44
2022-08-11T00:53:54.564Z,101695.31
2022-08-11T00:57:36.754Z,101706.91
2022-08-11T01:01:11.572Z,101698.88
2022-08-11T01:04:58.852Z,101705.09
2022-08-11T01:08:38.320Z,101699.78
2022-08-11T01:11:57.787Z,101698.88
2022-08-11T01:15:37.541Z,101695.28
2022-08-11T01:18:54.360Z,101696.22
2022-08-11T01:22:28.754Z,101690.84
2022-08-11T01:26:08.398Z,101697.06
2022-08-11T01:29:13.383Z,101700.63
2022-08-11T01:32:55.342Z,101703.31
2022-08-11T01:36:22.299Z,101697.94
2022-08-11T01:39:43.540Z,101709.56
2022-08-11T01:43:22.984Z,101703.28
2022-08-11T01:46:32.718Z,101705.97
2022-08-11T01:50:09.862Z,101708.63
2022-08-11T01:53:27.096Z,101706.84
2022-08-11T01:57:02.414Z,101705.97
2022-08-11T02:00:11.829Z,101704.19
2022-08-11T02:03:39.267Z,101708.59
2022-08-11T02:07:13.932Z,101702.38
2022-08-11T02:10:54.648Z,101699.69
2022-08-11T02:14:19.215Z,101701.47
2022-08-11T02:17:33.236Z,101701.47
2022-08-11T02:21:02.639Z,101697.03
2022-08-11T02:24:09.165Z,101702.31
2022-08-11T02:27:52.791Z,101705.94
2022-08-11T02:32:15.671Z,101704.09
2022-08-11T02:35:12.218Z,101708.53
2022-08-11T02:38:43.234Z,101713.06
2022-08-11T02:42:03.983Z,101704.97
2022-08-11T02:45:11.837Z,101720.09
2022-08-11T02:48:57.192Z,101707.63
2022-08-11T02:52:24.159Z,101714.72
2022-08-11T02:55:44.629Z,101707.59
2022-08-11T02:59:56.123Z,101708.47
2022-08-11T03:03:18.486Z,101710.25
2022-08-11T03:06:41.479Z,101709.34
2022-08-11T03:09:54.911Z,101707.53
2022-08-11T03:13:41.473Z,101716.47
2022-08-11T03:16:53.402Z,101713.78
2022-08-11T03:20:21.593Z,101711.13
2022-08-11T03:23:45.300Z,101721.78
2022-08-11T03:26:56.246Z,101727.13
2022-08-11T03:30:12.291Z,101723.59
2022-08-11T03:33:48.635Z,101736.03
2022-08-11T03:37:16.959Z,101725.31
2022-08-11T03:40:38.532Z,101720.88
2022-08-11T03:43:58.372Z,101728.84
2022-08-11T03:47:27.366Z,101732.44
2022-08-11T03:50:55.392Z,101729.75
2022-08-11T03:54:36.595Z,101732.41
2022-08-11T03:58:15.995Z,101736.88
2022-08-11T04:01:49.238Z,101733.31
2022-08-11T04:05:13.479Z,101736.88
2022-08-11T04:08:36.925Z,101735.16
2022-08-11T04:12:04.249Z,101727.16
2022-08-11T04:15:46.731Z,101732.47
2022-08-11T04:19:11.139Z,101737.84
2022-08-11T04:22:31.854Z,101729.84
2022-08-11T04:25:57.689Z,101728.06
2022-08-11T04:29:25.665Z,101728.97
2022-08-11T04:33:16.218Z,101737.03
2022-08-11T04:37:14.423Z,101733.47
2022-08-11T04:40:38.369Z,101735.25
2022-08-11T04:44:07.759Z,101731.75
2022-08-11T04:48:03.891Z,101734.44
2022-08-11T04:51:51.385Z,101735.34
2022-08-11T04:55:39.677Z,101738.94
2022-08-11T04:59:19.684Z,101741.63
2022-08-11T05:02:35.604Z,101728.25
2022-08-11T05:05:56.242Z,101736.31
2022-08-11T05:09:06.237Z,101727.41
2022-08-11T05:12:10.933Z,101730.06
2022-08-11T05:15:43.098Z,101737.22
2022-08-11T05:19:08.640Z,101744.34
2022-08-11T05:22:31.402Z,101732.75
2022-08-11T05:26:43.421Z,101743.47
2022-08-11T05:30:12.711Z,101738.97
2022-08-11T05:33:40.776Z,101737.19
2022-08-11T05:36:48.691Z,101739.81
2022-08-11T05:40:13.695Z,101735.38
2022-08-11T05:43:35.018Z,101734.44
2022-08-11T05:47:00.585Z,101733.44
2022-08-11T05:50:31.098Z,101742.22
2022-08-11T05:53:53.938Z,101738.50
2022-08-11T05:57:00.806Z,101736.38
2022-08-11T06:00:10.562Z,101732.31
2022-08-11T06:03:26.020Z,101725.56
2022-08-11T06:06:29.274Z,101731.91
2022-08-11T06:09:47.683Z,101730.00
2022-08-11T06:12:53.905Z,101728.84
2022-08-11T06:15:58.549Z,101722.13
2022-08-11T06:19:02.518Z,101711.81
2022-08-11T06:22:07.029Z,101715.69
2022-08-11T06:25:10.645Z,101723.91
2022-08-11T06:28:18.601Z,101703.69
2022-08-11T06:31:26.333Z,101711.41
2022-08-11T06:35:10.255Z,101701.44
2022-08-11T06:38:28.534Z,101698.34
2022-08-11T06:41:39.193Z,101702.19
2022-08-11T06:44:44.270Z,101702.56
2022-08-11T06:47:47.862Z,101702.16
2022-08-11T06:51:11.879Z,101693.44
2022-08-11T06:54:15.461Z,101704.03
2022-08-11T06:57:37.538Z,101702.84
2022-08-11T07:00:40.772Z,101701.53
2022-08-11T07:03:49.980Z,101699.38
2022-08-11T07:07:25.043Z,101702.53
2022-08-11T07:10:59.092Z,101692.03
2022-08-11T07:14:20.740Z,101676.47
2022-08-11T07:17:24.081Z,101668.53
2022-08-11T07:20:45.383Z,101670.69
2022-08-11T07:24:06.402Z,101667.41
2022-08-11T07:27:35.613Z,101655.44
2022-08-11T07:30:42.102Z,101674.81
2022-08-11T07:34:08.076Z,101671.91
2022-08-11T07:37:17.947Z,101664.47
2022-08-11T07:40:24.318Z,101667.31
2022-08-11T07:43:26.512Z,101677.00
2022-08-11T07:46:47.323Z,101677.19
2022-08-11T07:50:09.222Z,101673.47
2022-08-11T07:53:13.655Z,101671.59
2022-08-11T07:56:23.326Z,101667.75
2022-08-11T08:00:04.304Z,101671.69
2022-08-11T08:03:38.276Z,101674.16
2022-08-11T08:07:16.010Z,101665.91
2022-08-11T08:10:37.912Z,101675.66
2022-08-11T08:13:59.124Z,101671.25
2022-08-11T08:17:20.119Z,101676.25
2022-08-11T08:20:26.053Z,101663.81
2022-08-11T08:23:34.435Z,101662.16
2022-08-11T08:26:55.920Z,101665.97
2022-08-11T08:30:17.218Z,101654.56
2022-08-11T08:33:25.453Z,101659.81
2022-08-11T08:36:27.483Z,101657.59
2022-08-11T08:39:31.718Z,101659.53
2022-08-11T08:42:44.447Z,101657.28
2022-08-11T08:45:47.613Z,101653.28
2022-08-11T08:48:50.466Z,101658.09
2022-08-11T08:52:20.114Z,101656.84
2022-08-11T08:55:21.514Z,101647.41
2022-08-11T08:58:24.522Z,101658.91
2022-08-11T09:01:32.022Z,101653.28
2022-08-11T09:04:34.906Z,101646.69
2022-08-11T09:07:39.725Z,101634.28
2022-08-11T09:10:44.274Z,101648.25
2022-08-11T09:14:03.249Z,101650.28
2022-08-11T09:17:09.186Z,101647.75
2022-08-11T09:20:34.775Z,101642.44
2022-08-11T09:24:19.334Z,101639.13
2022-08-11T09:27:20.390Z,101642.00
2022-08-11T09:30:28.162Z,101638.59
2022-08-11T09:33:31.214Z,101634.78
2022-08-11T09:36:52.778Z,101635.34
2022-08-11T09:40:14.750Z,101641.88
2022-08-11T09:43:37.351Z,101640.16
2022-08-11T09:46:39.859Z,101629.31
2022-08-11T09:49:45.176Z,101634.34
2022-08-11T09:53:16.913Z,101631.97
2022-08-11T09:56:35.528Z,101635.38
2022-08-11T09:59:37.990Z,101627.56
2022-08-11T10:02:46.562Z,101627.94
2022-08-11T10:06:12.893Z,101625.69
2022-08-11T10:09:20.719Z,101622.06
2022-08-11T10:12:27.042Z,101629.88
2022-08-11T10:15:39.640Z,101621.50
2022-08-11T10:19:03.512Z,101622.09
2022-08-11T10:22:27.742Z,101623.63
2022-08-11T10:25:48.331Z,101615.97
2022-08-11T10:29:11.945Z,101604.59
2022-08-11T10:32:32.576Z,101591.38
2022-08-11T10:35:38.770Z,101591.44
2022-08-11T10:38:41.072Z,101583.50
2022-08-11T10:42:08.243Z,101587.00
2022-08-11T10:45:30.499Z,101578.84
2022-08-11T10:48:38.034Z,101578.59
2022-08-11T10:51:59.587Z,101577.91
2022-08-11T10:55:21.356Z,101567.38
2022-08-11T10:58:44.092Z,101564.00
2022-08-11T11:01:47.294Z,101561.97
2022-08-11T11:04:58.234Z,101554.09
2022-08-11T11:08:38.261Z,101556.81
2022-08-11T11:12:04.618Z,101551.03
2022-08-11T11:15:26.293Z,101536.94
2022-08-11T11:18:36.065Z,101543.81
2022-08-11T11:21:39.880Z,101534.84
2022-08-11T11:25:10.023Z,101524.56
2022-08-11T11:28:49.789Z,101529.03
2022-08-11T11:32:27.343Z,101523.19
2022-08-11T11:36:07.714Z,101520.88
2022-08-11T11:39:10.040Z,101515.94
2022-08-11T11:42:13.875Z,101523.97
2022-08-11T11:45:24.230Z,101514.84
2022-08-11T11:48:28.850Z,101504.53
2022-08-11T11:51:31.401Z,101509.44
2022-08-11T11:54:36.675Z,101510.63
2022-08-11T11:57:58.550Z,101507.28
2022-08-11T12:01:17.374Z,101503.06
2022-08-11T12:04:20.660Z,101518.34
2022-08-11T12:07:42.273Z,101518.25
2022-08-11T12:11:35.055Z,101502.88
2022-08-11T12:14:37.542Z,101493.84
2022-08-11T12:17:40.311Z,101483.22
2022-08-11T12:20:43.833Z,101474.13
2022-08-11T12:24:06.402Z,101474.31
2022-08-11T12:27:24.886Z,101475.59
2022-08-11T12:30:28.307Z,101475.03
2022-08-11T12:33:30.899Z,101463.53
2022-08-11T12:36:42.136Z,101460.72
2022-08-11T12:40:16.343Z,101475.50
2022-08-11T12:43:56.789Z,101471.91
2022-08-11T12:47:02.239Z,101457.00
2022-08-11T12:50:23.829Z,101454.38
2022-08-11T12:53:28.988Z,101441.34
2022-08-11T12:56:57.730Z,101452.34
2022-08-11T13:00:19.740Z,101435.78
2022-08-11T13:03:40.818Z,101440.03
2022-08-11T13:06:43.380Z,101454.16
2022-08-11T13:09:46.606Z,101431.00
2022-08-11T13:12:49.386Z,101426.84
2022-08-11T13:15:52.327Z,101441.97
2022-08-11T13:18:56.809Z,101440.69
2022-08-11T13:21:59.355Z,101439.59
2022-08-11T13:25:04.099Z,101444.94
2022-08-11T13:28:07.395Z,101451.66
2022-08-11T13:31:15.038Z,101452.16
2022-08-11T13:34:18.303Z,101434.94
2022-08-11T13:38:18.843Z,101430.19
2022-08-11T13:40:55.628Z,101430.03
2022-08-11T13:43:59.379Z,101429.25
2022-08-11T13:47:07.519Z,101431.91
2022-08-11T13:50:11.084Z,101431.16
2022-08-11T13:53:17.080Z,101434.34
2022-08-11T13:56:22.469Z,101438.69
2022-08-11T13:59:29.869Z,101437.09
2022-08-11T14:02:34.106Z,101444.66
2022-08-11T14:05:47.790Z,101435.03
2022-08-11T14:08:53.699Z,101428.16
2022-08-11T14:12:24.168Z,101424.47
2022-08-11T14:15:34.705Z,101428.00
2022-08-11T14:18:40.973Z,101433.19
2022-08-11T14:22:07.366Z,101443.06
2022-08-11T14:25:12.178Z,101443.38
2022-08-11T14:28:29.816Z,101441.50
2022-08-11T14:31:34.921Z,101448.06
2022-08-11T14:34:41.452Z,101442.38
2022-08-11T14:37:44.326Z,101438.59
2022-08-11T14:41:06.757Z,101438.28
2022-08-11T14:44:27.972Z,101441.03
2022-08-11T14:47:34.356Z,101443.16
2022-08-11T14:50:36.535Z,101437.31
2022-08-11T14:53:39.014Z,101440.19
2022-08-11T14:56:58.042Z,101433.84
2022-08-11T15:00:04.034Z,101438.03
2022-08-11T15:03:13.259Z,101426.72
2022-08-11T15:06:16.235Z,101428.91
2022-08-11T15:09:18.813Z,101426.56
2022-08-11T15:12:32.519Z,101415.75
2022-08-11T15:15:55.279Z,101417.72
2022-08-11T15:18:57.949Z,101414.97
2022-08-11T15:22:18.790Z,101408.47
2022-08-11T15:25:21.169Z,101414.25
2022-08-11T15:28:43.675Z,101414.53
2022-08-11T15:32:06.578Z,101419.50
2022-08-11T15:35:28.163Z,101407.69
2022-08-11T15:39:31.200Z,101410.81
2022-08-11T15:42:54.297Z,101409.44
2022-08-11T15:46:02.439Z,101404.59
2022-08-11T15:49:09.573Z,101396.13
2022-08-11T15:52:17.038Z,101397.53
2022-08-11T15:55:20.217Z,101396.63
2022-08-11T15:58:42.680Z,101405.47
2022-08-11T16:02:04.384Z,101405.44
2022-08-11T16:05:10.268Z,101412.81
2022-08-11T16:08:16.139Z,101414.91
2022-08-11T16:11:18.930Z,101413.22
2022-08-11T16:14:41.936Z,101412.34
2022-08-11T16:17:45.853Z,101413.16
2022-08-11T16:20:51.405Z,101411.31
2022-08-11T16:23:55.742Z,101403.06
2022-08-11T16:27:07.949Z,101405.31
2022-08-11T16:30:15.619Z,101412.44
2022-08-11T16:33:48.393Z,101415.84
2022-08-11T16:36:59.743Z,101419.41
2022-08-11T16:40:02.363Z,101413.16
2022-08-11T16:43:25.079Z,101409.84
2022-08-11T16:46:46.030Z,101418.03
2022-08-11T16:49:53.314Z,101417.47
2022-08-11T16:52:55.650Z,101407.38
2022-08-11T16:56:03.114Z,101411.84
2022-08-11T16:59:15.656Z,101404.38
2022-08-11T17:02:40.285Z,101409.13
2022-08-11T17:06:04.220Z,101418.16
2022-08-11T17:09:25.400Z,101415.00
2022-08-11T17:12:48.009Z,101416.53
2022-08-11T17:16:10.243Z,101415.72
2022-08-11T17:20:43.178Z,101416.22
2022-08-11T17:23:13.940Z,101416.38
2022-08-11T17:26:25.472Z,101426.50
2022-08-11T17:29:55.033Z,101428.16
2022-08-11T17:33:16.008Z,101435.09
2022-08-11T17:36:19.955Z,101434.66
2022-08-11T17:39:29.150Z,101429.69
2022-08-11T17:42:51.398Z,101430.13
2022-08-11T17:46:13.961Z,101438.88
2022-08-11T17:49:19.621Z,101439.44
2022-08-11T17:52:42.654Z,101438.28
2022-08-11T17:56:04.899Z,101444.34
2022-08-11T17:59:32.435Z,101435.06
2022-08-11T18:02:59.486Z,101444.81
2022-08-11T18:06:03.000Z,101442.69
2022-08-11T18:09:27.050Z,101445.88
2022-08-11T18:12:48.043Z,101438.53
2022-08-11T18:16:09.997Z,101446.41
2022-08-11T18:19:31.098Z,101453.88
2022-08-11T18:22:57.376Z,101460.13
2022-08-11T18:26:19.914Z,101457.31
2022-08-11T18:29:41.842Z,101455.28
2022-08-11T18:33:39.859Z,101459.56
2022-08-11T18:36:49.060Z,101463.34
2022-08-11T18:40:15.762Z,101458.56
2022-08-11T18:43:39.279Z,101463.66
2022-08-11T18:47:02.519Z,101471.22
2022-08-11T18:50:38.733Z,101470.72
2022-08-11T18:54:02.837Z,101469.19
2022-08-11T18:57:25.473Z,101476.75
2022-08-11T19:00:47.045Z,101483.28
2022-08-11T19:04:11.956Z,101469.25
2022-08-11T19:07:39.247Z,101466.78
2022-08-11T19:11:03.049Z,101467.25
2022-08-11T19:14:24.455Z,101474.63
2022-08-11T19:17:47.810Z,101480.19
2022-08-11T19:21:11.992Z,101484.00
2022-08-11T19:24:34.917Z,101478.75
2022-08-11T19:27:57.052Z,101482.47
2022-08-11T19:31:22.200Z,101494.31
2022-08-11T19:34:44.311Z,101494.22
2022-08-11T19:38:08.166Z,101488.03
2022-08-11T19:41:56.132Z,101500.59
2022-08-11T19:45:18.618Z,101491.56
2022-08-11T19:48:45.237Z,101490.59
2022-08-11T19:52:08.187Z,101492.25
2022-08-11T19:55:29.184Z,101489.56
2022-08-11T19:58:50.538Z,101493.28
2022-08-11T20:02:14.695Z,101492.34
2022-08-11T20:05:37.180Z,101476.50
2022-08-11T20:09:05.659Z,101482.84
2022-08-11T20:12:33.168Z,101484.03
2022-08-11T20:15:56.320Z,101497.84
2022-08-11T20:19:18.667Z,101489.75
2022-08-11T20:22:45.443Z,101486.97
2022-08-11T20:26:29.504Z,101486.19
2022-08-11T20:29:49.409Z,101480.94
2022-08-11T20:33:11.232Z,101484.75
2022-08-11T20:36:32.941Z,101497.63
2022-08-11T20:39:55.027Z,101495.19
2022-08-11T20:44:07.019Z,101491.75
2022-08-11T20:46:59.300Z,101491.16
2022-08-11T20:50:20.579Z,101494.19
2022-08-11T20:53:44.905Z,101491.53
2022-08-11T20:57:12.657Z,101493.56
2022-08-11T21:00:39.301Z,101491.16
2022-08-11T21:04:00.851Z,101493.28
2022-08-11T21:11:06.230Z,101484.53
2022-08-11T21:14:31.022Z,101476.53
2022-08-11T21:18:00.520Z,101476.69
2022-08-11T21:21:30.332Z,101483.19
2022-08-11T21:25:06.978Z,101489.69
2022-08-11T21:28:28.313Z,101490.63
2022-08-11T21:31:50.886Z,101487.94
2022-08-11T21:35:12.762Z,101496.94
2022-08-11T21:38:34.247Z,101497.16
2022-08-11T21:41:56.182Z,101506.13
2022-08-11T21:45:17.884Z,101502.22
2022-08-11T21:48:39.499Z,101504.78
2022-08-11T21:52:00.023Z,101504.91
2022-08-11T21:55:21.185Z,101497.66
2022-08-11T21:58:43.771Z,101507.50
2022-08-11T22:02:06.216Z,101501.19
2022-08-11T22:05:30.267Z,101489.38
2022-08-11T22:08:52.906Z,101488.31
2022-08-11T22:12:35.197Z,101494.72
2022-08-11T22:15:58.514Z,101491.13
2022-08-11T22:19:20.089Z,101496.31
2022-08-11T22:22:52.006Z,101502.59
2022-08-11T22:26:13.947Z,101498.25
2022-08-11T22:29:38.319Z,101487.41
2022-08-11T22:33:12.399Z,101496.13
2022-08-11T22:36:36.712Z,101495.44
2022-08-11T22:40:02.234Z,101479.28
2022-08-11T22:43:24.407Z,101484.47
2022-08-11T22:46:45.576Z,101488.88
2022-08-11T22:50:10.119Z,101479.78
2022-08-11T22:53:57.470Z,101483.31
2022-08-11T22:57:14.976Z,101480.66
2022-08-11T23:00:35.943Z,101468.91
2022-08-11T23:03:57.111Z,101474.22
2022-08-11T23:07:50.388Z,101479.56
2022-08-11T23:11:01.873Z,101477.69
2022-08-11T23:14:23.118Z,101481.34
2022-08-11T23:17:45.327Z,101481.31
2022-08-11T23:21:06.770Z,101474.09
2022-08-11T23:24:29.019Z,101475.84
2022-08-11T23:27:51.712Z,101461.47
2022-08-11T23:31:13.458Z,101465.91
2022-08-11T23:35:03.860Z,101466.81
2022-08-11T23:38:25.774Z,101459.75
2022-08-11T23:41:46.812Z,101459.66
2022-08-11T23:45:09.848Z,101458.00
2022-08-11T23:48:32.579Z,101458.00
2022-08-11T23:51:53.714Z,101457.06
2022-08-11T23:55:14.303Z,101448.97
2022-08-11T23:58:35.139Z,101443.72
